CLP2 weather

Montreal / Laval (Artopex Plus) Heliport
Montréal, Quebec, Canada

Public forecast

Using degrees Celsius for public forecast. Weather courtesy of forecast.io.

METAR (pilot weather report)

Closest report is Montreal / Pierre Elliott Trudeau International Airport, 6.5 nm (12.0 km) S. Retrieved 2019/05/23 03:00 UTC (1 minute ago):

CYUL 230300Z 16004KT 15SM BKN130 16/05 A3017 RMK AC7 SLP219

TAF (pilot weather forecast)

Closest forecast is Montreal / Pierre Elliott Trudeau International Airport, 6.5 nm (12.0 km) S. Retrieved 2019/05/23 03:42 UTC (0 seconds ago):

TAF CYUL 230238Z 2303/2324 14006KT P6SM OVC120 TEMPO 2303/2305 P6SM -SHRA FM230600 12006KT P6SM BKN100 FM230900 10008KT P6SM BKN070 FM231700 09008KT P6SM -SHRA BKN030 BKN090 OVC140 FM231900 13012G22KT P6SM SCT030 BKN120 FM232200 13015G30KT 5SM SHRA BR OVC020 PROB30 2322/2324 VRB20G35KT 2SM +SHRA BR OVC012 RMK NXT FCST BY 230600Z